.
WxDataArchive / Data Records for 2007-03-05
2007-03-04 March 2007 2007-03-06

Data Records for Monday, 05 March 2007

Time	Temp	Chill	HIndex	Humid	Dewpt	 Wind 	HiWind	WindDir	Rain 	Barom 
-----	----	-----	------	-----	-----	------	------	-------	-----	----- 
00:00	28.8	24.4	28.8	70	20.3	4	7	270	0.00	29.990 
00:05	28.8	23.3	28.8	70	20.3	5	12	270	0.00	29.994 
00:10	28.8	24.4	28.8	70	20.3	4	11	270	0.00	29.994 
00:15	29.0	23.6	29.0	70	20.5	5	11	270	0.00	29.990 
00:20	28.8	24.4	28.8	71	20.6	4	13	270	0.00	29.988 
00:25	28.8	28.8	28.8	71	20.6	3	7	270	0.00	29.986 
00:30	28.8	28.8	28.8	71	20.6	3	7	270	0.00	29.980 
00:35	29.0	23.6	29.0	71	20.8	5	11	270	0.00	29.977 
00:40	29.1	23.7	29.1	71	20.9	5	11	270	0.00	29.976 
00:45	29.1	23.7	29.1	71	20.9	5	11	270	0.00	29.982 
00:50	29.1	24.7	29.1	72	21.2	4	12	270	0.00	29.983 
00:55	29.1	23.7	29.1	72	21.2	5	9	270	0.00	29.983 
01:00	29.0	29.0	29.0	72	21.1	3	9	248	0.00	29.989 
01:05	29.0	29.0	29.0	73	21.4	3	8	270	0.00	29.988 
01:10	29.0	29.0	29.0	73	21.4	3	7	270	0.00	29.990 
01:15	29.0	24.6	29.0	73	21.4	4	12	270	0.00	29.999 
01:20	29.0	24.6	29.0	73	21.4	4	9	270	0.00	29.998 
01:25	28.8	24.4	28.8	73	21.3	4	16	248	0.00	29.991 
01:30	28.8	28.8	28.8	74	21.6	3	6	270	0.00	29.989 
01:35	28.8	24.4	28.8	74	21.6	4	9	270	0.00	29.989 
01:40	28.7	24.3	28.7	75	21.8	4	10	270	0.00	29.988 
01:45	28.7	24.3	28.7	75	21.8	4	12	270	0.00	29.989 
01:50	28.7	28.7	28.7	75	21.8	3	7	270	0.00	29.990 
01:55	28.5	28.5	28.5	75	21.6	3	6	270	0.00	29.994 
02:00	28.5	24.0	28.5	76	21.9	4	9	270	0.00	29.997 
02:05	28.4	28.4	28.4	76	21.8	3	7	270	0.00	29.994 
02:10	28.4	28.4	28.4	76	21.8	3	6	270	0.00	29.993 
02:15	28.2	28.2	28.2	76	21.6	3	5	270	0.00	29.992 
02:20	28.2	28.2	28.2	77	21.9	3	10	270	0.00	29.990 
02:25	28.2	28.2	28.2	77	21.9	3	5	270	0.00	29.999 
02:30	28.2	28.2	28.2	76	21.6	3	6	270	0.00	29.998 
02:35	28.1	28.1	28.1	77	21.8	3	8	270	0.00	29.999 
02:40	28.1	28.1	28.1	77	21.8	3	6	270	0.00	29.993 
02:45	27.9	27.9	27.9	77	21.6	3	7	270	0.00	29.990 
02:50	27.9	27.9	27.9	76	21.3	3	5	270	0.00	29.998 
02:55	27.9	27.9	27.9	76	21.3	3	5	270	0.00	29.995 
03:00	28.1	28.1	28.1	76	21.5	3	7	270	0.00	30.000 
03:05	28.1	28.1	28.1	75	21.2	3	9	270	0.00	29.997 
03:10	28.2	28.2	28.2	75	21.3	3	6	270	0.00	29.999 
03:15	28.2	28.2	28.2	74	21.0	3	9	270	0.00	29.990 
03:20	28.2	28.2	28.2	74	21.0	3	5	270	0.00	29.990 
03:25	28.2	28.2	28.2	74	21.0	3	5	270	0.00	29.987 
03:30	28.1	28.1	28.1	73	20.6	3	6	270	0.00	29.974 
03:35	28.1	28.1	28.1	73	20.6	3	12	270	0.00	29.973 
03:40	28.1	28.1	28.1	74	20.9	3	6	270	0.00	29.988 
03:45	28.1	28.1	28.1	74	20.9	3	7	270	0.00	30.003 
03:50	28.1	23.6	28.1	73	20.6	4	8	270	0.00	30.001 
03:55	28.1	23.6	28.1	73	20.6	4	10	270	0.00	30.002 
04:00	27.9	27.9	27.9	73	20.4	3	7	270	0.00	29.988 
04:05	27.8	27.8	27.8	73	20.3	3	5	270	0.00	29.989 
04:10	27.8	27.8	27.8	73	20.3	3	10	270	0.00	29.989 
04:15	27.8	23.2	27.8	73	20.3	4	9	270	0.00	29.985 
04:20	27.8	27.8	27.8	73	20.3	3	7	270	0.00	29.989 
04:25	27.6	27.6	27.6	73	20.1	3	7	270	0.00	29.989 
04:30	27.6	27.6	27.6	74	20.4	3	6	270	0.00	29.987 
04:35	27.6	27.6	27.6	74	20.4	3	7	270	0.00	29.988 
04:40	27.6	27.6	27.6	73	20.1	3	6	270	0.00	29.991 
04:45	27.8	27.8	27.8	73	20.3	3	5	270	0.00	29.999 
04:50	27.8	27.8	27.8	73	20.3	2	5	270	0.00	30.003 
04:55	27.9	27.9	27.9	73	20.4	2	5	270	0.00	30.003 
05:00	27.9	27.9	27.9	73	20.4	2	6	270	0.00	30.004 
05:05	27.9	27.9	27.9	73	20.4	3	6	270	0.00	30.005 
05:10	28.1	28.1	28.1	73	20.6	3	6	270	0.00	30.006 
05:15	28.2	28.2	28.2	73	20.7	3	6	270	0.00	30.005 
05:20	28.4	28.4	28.4	73	20.9	3	7	270	0.00	30.004 
05:25	28.4	28.4	28.4	73	20.9	2	5	270	0.00	30.005 
05:30	28.4	28.4	28.4	73	20.9	2	5	270	0.00	30.003 
05:35	28.4	28.4	28.4	73	20.9	3	6	270	0.00	30.003 
05:40	28.4	28.4	28.4	73	20.9	2	6	270	0.00	30.004 
05:45	28.5	28.5	28.5	73	21.0	2	6	270	0.00	30.004 
05:50	28.4	28.4	28.4	73	20.9	2	4	270	0.00	30.006 
05:55	28.4	28.4	28.4	73	20.9	2	6	270	0.00	30.009 
06:00	28.5	28.5	28.5	73	21.0	3	6	270	0.00	30.010 
06:05	28.5	28.5	28.5	73	21.0	2	5	270	0.00	30.012 
06:10	28.5	28.5	28.5	73	21.0	3	5	270	0.00	30.014 
06:15	28.7	28.7	28.7	73	21.2	3	7	270	0.00	30.020 
06:20	28.8	28.8	28.8	73	21.3	3	4	270	0.00	30.020 
06:25	28.8	28.8	28.8	73	21.3	3	5	270	0.00	30.023 
06:30	29.0	29.0	29.0	73	21.4	2	7	270	0.00	30.029 
06:35	29.0	29.0	29.0	73	21.4	2	4	270	0.00	30.031 
06:40	29.0	29.0	29.0	73	21.4	1	4	248	0.00	30.032 
06:45	29.1	29.1	29.1	73	21.5	2	4	270	0.00	30.036 
06:50	29.1	29.1	29.1	73	21.5	2	6	270	0.00	30.036 
06:55	29.1	29.1	29.1	73	21.5	3	5	270	0.00	30.036 
07:00	29.3	29.3	29.3	73	21.7	3	6	270	0.00	30.037 
07:05	29.3	29.3	29.3	73	21.7	2	5	270	0.00	30.036 
07:10	29.4	29.4	29.4	73	21.8	3	6	270	0.00	30.038 
07:15	29.5	29.5	29.5	72	21.6	3	10	270	0.00	30.048 
07:20	29.5	29.5	29.5	72	21.6	3	7	270	0.00	30.046 
07:25	29.5	29.5	29.5	72	21.6	3	6	270	0.00	30.050 
07:30	29.5	29.5	29.5	72	21.6	2	5	270	0.00	30.051 
07:35	29.7	29.7	29.7	72	21.8	2	6	315	0.00	30.051 
07:40	29.8	29.8	29.8	72	21.9	3	5	270	0.00	30.052 
07:45	30.0	30.0	30.0	72	22.1	2	5	292	0.00	30.055 
07:50	30.1	30.1	30.1	71	21.9	3	9	270	0.00	30.055 
07:55	30.1	30.1	30.1	71	21.9	3	10	270	0.00	30.056 
08:00	30.1	30.1	30.1	72	22.2	2	5	270	0.00	30.057 
08:05	30.3	30.3	30.3	71	22.0	3	10	292	0.00	30.062 
08:10	30.4	30.4	30.4	71	22.1	3	10	270	0.00	30.065 
08:15	30.4	30.4	30.4	71	22.1	3	6	270	0.00	30.067 
08:20	30.6	30.6	30.6	71	22.3	2	7	270	0.00	30.068 
08:25	30.6	30.6	30.6	71	22.3	3	11	315	0.00	30.070 
08:30	30.7	30.7	30.7	71	22.4	3	9	270	0.00	30.075 
08:35	30.9	26.8	30.9	71	22.6	4	10	292	0.00	30.077 
08:40	31.2	31.2	31.2	71	22.9	3	7	292	0.00	30.082 
08:45	31.2	31.2	31.2	70	22.6	3	10	292	0.00	30.081 
08:50	31.5	31.5	31.5	70	22.9	3	5	270	0.00	30.084 
08:55	31.6	31.6	31.6	70	23.0	3	7	270	0.00	30.082 
09:00	31.9	31.9	31.9	70	23.2	3	7	270	0.00	30.085 
09:05	32.1	32.1	32.1	69	23.1	3	7	270	0.00	30.089 
09:10	32.1	32.1	32.1	70	23.4	3	7	248	0.00	30.090 
09:15	32.2	32.2	32.2	70	23.5	3	7	270	0.00	30.095 
09:20	32.5	32.5	32.5	69	23.5	3	5	315	0.00	30.096 
09:25	32.7	32.7	32.7	69	23.7	3	9	315	0.00	30.092 
09:30	33.1	33.1	33.1	69	24.1	3	9	292	0.00	30.094 
09:35	33.4	33.4	33.4	68	24.0	3	9	292	0.00	30.096 
09:40	33.5	29.8	33.5	67	23.7	4	13	270	0.00	30.092 
09:45	34.0	34.0	34.0	66	23.9	3	8	270	0.00	30.094 
09:50	34.3	34.3	34.3	67	24.5	3	9	270	0.00	30.094 
09:55	34.4	34.4	34.4	66	24.2	3	10	292	0.00	30.096 
10:00	34.4	34.4	34.4	66	24.2	3	9	270	0.00	30.098 
10:05	34.4	30.8	34.4	66	24.2	4	11	270	0.00	30.099 
10:10	34.4	34.4	34.4	66	24.2	3	11	270	0.00	30.100 
10:15	34.3	34.3	34.3	66	24.1	3	5	270	0.00	30.099 
10:20	34.4	30.8	34.4	66	24.2	4	14	270	0.00	30.104 
10:25	34.7	34.7	34.7	65	24.2	3	7	292	0.00	30.107 
10:30	34.4	30.8	34.4	65	23.9	4	12	270	0.00	30.110 
10:35	34.4	29.9	34.4	63	23.1	5	11	270	0.00	30.109 
10:40	34.6	34.6	34.6	62	22.9	3	10	315	0.00	30.110 
10:45	35.2	35.2	35.2	61	23.1	3	7	338	0.00	30.113 
10:50	34.9	31.4	34.9	61	22.8	4	9	292	0.00	30.113 
10:55	34.9	34.9	34.9	62	23.2	3	6	292	0.00	30.114 
11:00	35.5	32.1	35.5	57	21.8	4	11	292	0.00	30.118 
11:05	35.5	32.1	35.5	56	21.4	4	12	292	0.00	30.121 
11:10	35.3	35.3	35.3	56	21.2	3	10	338	0.00	30.123 
11:15	35.8	31.5	35.8	54	20.8	5	12	292	0.00	30.125 
11:20	35.3	31.9	35.3	56	21.2	4	12	0	0.00	30.130 
11:25	35.2	31.8	35.2	56	21.1	4	11	315	0.00	30.135 
11:30	35.5	35.5	35.5	57	21.8	3	9	315	0.00	30.138 
11:35	35.0	35.0	35.0	57	21.3	3	10	315	0.00	30.139 
11:40	34.6	34.6	34.6	59	21.8	3	12	338	0.00	30.141 
11:45	34.3	34.3	34.3	60	21.9	3	10	315	0.00	30.153 
11:50	34.1	34.1	34.1	59	21.3	3	9	338	0.00	30.153 
11:55	34.0	34.0	34.0	58	20.8	3	9	315	0.00	30.154 
12:00	34.0	30.4	34.0	56	20.0	4	9	315	0.00	30.158 
12:05	33.7	30.0	33.7	54	18.8	4	10	292	0.00	30.160 
12:10	33.4	33.4	33.4	55	19.0	3	9	270	0.00	30.163 
12:15	34.6	31.1	34.6	52	18.8	4	10	270	0.00	30.163 
12:20	35.8	35.8	35.8	53	20.4	2	7	315	0.00	30.165 
12:25	35.3	35.3	35.3	55	20.8	2	9	338	0.00	30.168 
12:30	34.4	34.4	34.4	55	19.9	3	10	338	0.00	30.171 
12:35	34.4	30.8	34.4	56	20.3	4	7	315	0.00	30.174 
12:40	34.3	30.7	34.3	55	19.8	4	11	292	0.00	30.173 
12:45	34.6	31.1	34.6	55	20.1	4	12	292	0.00	30.173 
12:50	34.6	31.1	34.6	53	19.2	4	8	315	0.00	30.174 
12:55	34.1	30.5	34.1	51	17.9	4	10	315	0.00	30.178 
13:00	34.0	34.0	34.0	54	19.1	3	6	315	0.00	30.183 
13:05	34.6	34.6	34.6	52	18.8	3	8	292	0.00	30.183 
13:10	34.1	30.5	34.1	53	18.8	4	10	292	0.00	30.186 
13:15	33.8	33.8	33.8	52	18.1	3	10	292	0.00	30.188 
13:20	34.1	30.5	34.1	51	17.9	4	9	338	0.00	30.190 
13:25	33.1	33.1	33.1	49	16.0	3	10	292	0.00	30.190 
13:30	33.7	33.7	33.7	49	16.6	3	11	315	0.00	30.194 
13:35	33.7	33.7	33.7	50	17.1	3	10	270	0.00	30.193 
13:40	34.0	34.0	34.0	50	17.3	3	5	338	0.00	30.194 
13:45	33.5	29.8	33.5	50	16.9	4	9	292	0.00	30.201 
13:50	33.1	33.1	33.1	50	16.5	3	10	292	0.00	30.200 
13:55	32.9	29.1	32.9	51	16.8	4	9	315	0.00	30.204 
14:00	32.9	29.1	32.9	50	16.3	4	14	270	0.00	30.205 
14:05	33.1	29.3	33.1	50	16.5	4	11	270	0.00	30.207 
14:10	32.9	29.1	32.9	47	14.9	4	14	270	0.00	30.209 
14:15	33.2	28.5	33.2	50	16.6	5	12	270	0.00	30.210 
14:20	33.7	30.0	33.7	50	17.1	4	11	270	0.00	30.212 
14:25	32.9	32.9	32.9	50	16.3	3	6	315	0.00	30.212 
14:30	32.8	32.8	32.8	48	15.3	3	7	292	0.00	30.215 
14:35	32.8	32.8	32.8	48	15.3	3	9	315	0.00	30.219 
14:40	32.7	32.7	32.7	50	16.1	3	8	315	0.00	30.220 
14:45	32.2	28.3	32.2	50	15.7	4	12	315	0.00	30.222 
14:50	31.9	31.9	31.9	49	14.9	3	12	292	0.00	30.223 
14:55	32.2	28.3	32.2	49	15.2	4	15	315	0.00	30.223 
15:00	31.9	28.0	31.9	49	14.9	4	12	292	0.00	30.225 
15:05	31.9	31.9	31.9	50	15.4	3	7	338	0.00	30.225 
15:10	31.8	27.8	31.8	49	14.8	4	10	315	0.00	30.228 
15:15	31.6	27.6	31.6	47	13.7	4	13	315	0.00	30.233 
15:20	31.6	31.6	31.6	47	13.7	3	6	292	0.00	30.234 
15:25	31.8	31.8	31.8	48	14.4	3	10	315	0.00	30.236 
15:30	31.3	27.3	31.3	47	13.4	4	13	292	0.00	30.234 
15:35	31.0	26.9	31.0	46	12.7	4	11	292	0.00	30.237 
15:40	30.4	26.2	30.4	48	13.1	4	9	315	0.00	30.237 
15:45	30.3	26.1	30.3	46	12.0	4	11	315	0.00	30.239 
15:50	30.6	26.5	30.6	46	12.3	4	8	270	0.00	30.240 
15:55	30.6	30.6	30.6	46	12.3	3	7	292	0.00	30.242 
16:00	30.4	30.4	30.4	46	12.1	2	7	315	0.00	30.245 
16:05	30.1	30.1	30.1	47	12.3	3	11	292	0.00	30.245 
16:10	29.7	25.4	29.7	48	12.4	4	10	292	0.00	30.247 
16:15	29.3	29.3	29.3	46	11.1	3	9	270	0.00	30.254 
16:20	29.1	29.1	29.1	48	11.9	3	10	315	0.00	30.255 
16:25	28.8	24.4	28.8	50	12.5	4	12	338	0.00	30.257 
16:30	29.0	29.0	29.0	50	12.7	2	10	292	0.00	30.258 
16:35	29.3	29.3	29.3	46	11.1	2	6	338	0.00	30.258 
16:40	29.0	29.0	29.0	45	10.4	3	7	292	0.00	30.264 
16:45	28.5	28.5	28.5	47	10.9	3	6	338	0.00	30.266 
16:50	28.7	28.7	28.7	48	11.5	2	6	292	0.00	30.270 
16:55	28.5	28.5	28.5	48	11.3	2	6	315	0.00	30.267 
17:00	28.4	28.4	28.4	47	10.8	2	11	338	0.00	30.273 
17:05	27.8	23.2	27.8	45	9.3	4	10	315	0.00	30.275 
17:10	27.5	22.9	27.5	46	9.5	4	11	315	0.00	30.277 
17:15	27.2	22.5	27.2	46	9.2	4	10	315	0.00	30.279 
17:20	27.0	27.0	27.0	47	9.5	3	14	292	0.00	30.282 
17:25	26.7	26.7	26.7	47	9.2	3	8	292	0.00	30.286 
17:30	26.7	26.7	26.7	48	9.7	3	10	292	0.00	30.290 
17:35	26.6	26.6	26.6	50	10.5	2	9	315	0.00	30.291 
17:40	26.6	26.6	26.6	52	11.4	2	5	270	0.00	30.293 
17:45	26.6	26.6	26.6	51	10.9	2	10	315	0.00	30.302 
17:50	26.1	26.1	26.1	49	9.6	3	7	315	0.00	30.307 
17:55	25.8	25.8	25.8	51	10.2	3	7	315	0.00	30.308 
18:00	25.7	25.7	25.7	53	11.0	2	7	338	0.00	30.308 
18:05	25.3	25.3	25.3	54	11.0	2	6	0	0.00	30.309 
18:10	25.1	25.1	25.1	54	10.8	2	7	315	0.00	30.313 
18:15	24.8	24.8	24.8	54	10.5	2	6	338	0.00	30.319 
18:20	24.7	24.7	24.7	53	10.0	2	7	315	0.00	30.321 
18:25	24.2	24.2	24.2	53	9.6	3	7	315	0.00	30.324 
18:30	24.1	24.1	24.1	52	9.1	2	12	0	0.00	30.328 
18:35	23.6	23.6	23.6	52	8.6	2	7	338	0.00	30.328 
18:40	23.5	23.5	23.5	50	7.6	3	7	292	0.00	30.332 
18:45	23.2	23.2	23.2	51	7.8	3	9	292	0.00	30.338 
18:50	22.9	22.9	22.9	54	8.8	2	7	338	0.00	30.340 
18:55	22.7	22.7	22.7	55	9.0	1	5	338	0.00	30.343 
19:00	22.7	22.7	22.7	56	9.4	2	5	270	0.00	30.349 
19:05	22.5	22.5	22.5	56	9.2	2	7	338	0.00	30.352 
19:10	22.2	22.2	22.2	57	9.3	3	9	292	0.00	30.353 
19:15	22.1	22.1	22.1	58	9.6	2	6	315	0.00	30.355 
19:20	21.9	21.9	21.9	59	9.8	2	6	292	0.00	30.356 
19:25	21.8	21.8	21.8	60	10.1	2	6	315	0.00	30.357 
19:30	21.6	21.6	21.6	59	9.5	1	6	315	0.00	30.358 
19:35	21.3	21.3	21.3	59	9.2	2	6	315	0.00	30.362 
19:40	21.1	21.1	21.1	60	9.4	2	6	315	0.00	30.366 
19:45	21.0	21.0	21.0	61	9.7	1	5	338	0.00	30.372 
19:50	20.8	20.8	20.8	60	9.1	2	6	292	0.00	30.373 
19:55	20.6	20.6	20.6	61	9.3	1	4	292	0.00	30.374 
20:00	20.6	20.6	20.6	62	9.7	1	5	270	0.00	30.376 
20:05	20.5	20.5	20.5	63	9.9	1	3	270	0.00	30.377 
20:10	20.3	20.3	20.3	63	9.7	1	4	292	0.00	30.382 
20:15	20.2	20.2	20.2	63	9.7	1	5	315	0.00	30.381 
20:20	20.0	20.0	20.0	63	9.5	1	3	315	0.00	30.382 
20:25	20.0	20.0	20.0	63	9.5	1	5	292	0.00	30.388 
20:30	19.9	19.9	19.9	62	9.0	2	7	292	0.00	30.392 
20:35	19.7	19.7	19.7	62	8.8	1	4	315	0.00	30.395 
20:40	19.7	19.7	19.7	62	8.8	2	7	292	0.00	30.401 
20:45	19.5	19.5	19.5	61	8.3	2	6	292	0.00	30.404 
20:50	19.4	19.4	19.4	62	8.5	1	4	315	0.00	30.407 
20:55	19.2	19.2	19.2	61	8.0	2	4	315	0.00	30.411 
21:00	19.2	19.2	19.2	62	8.3	1	3	338	0.00	30.416 
21:05	19.1	19.1	19.1	62	8.3	1	3	338	0.00	30.415 
21:10	18.9	18.9	18.9	62	8.1	2	4	315	0.00	30.418 
21:15	18.9	18.9	18.9	62	8.1	2	6	338	0.00	30.421 
21:20	18.8	18.8	18.8	62	8.0	1	6	315	0.00	30.422 
21:25	18.6	18.6	18.6	62	7.8	1	4	315	0.00	30.424 
21:30	18.6	18.6	18.6	62	7.8	2	6	292	0.00	30.427 
21:35	18.4	18.4	18.4	62	7.6	1	5	338	0.00	30.431 
21:40	18.3	18.3	18.3	62	7.5	1	5	338	0.00	30.435 
21:45	18.3	18.3	18.3	62	7.5	1	6	292	0.00	30.437 
21:50	18.1	18.1	18.1	62	7.3	1	4	338	0.00	30.438 
21:55	18.0	18.0	18.0	62	7.2	1	4	338	0.00	30.439 
22:00	18.0	18.0	18.0	62	7.2	2	7	338	0.00	30.445 
22:05	17.8	17.8	17.8	62	7.0	1	4	292	0.00	30.447 
22:10	17.8	17.8	17.8	62	7.0	1	6	338	0.00	30.449 
22:15	17.7	17.7	17.7	62	6.9	1	3	338	0.00	30.450 
22:20	17.5	17.5	17.5	62	6.7	1	4	338	0.00	30.451 
22:25	17.3	17.3	17.3	63	6.9	1	3	338	0.00	30.453 
22:30	17.2	17.2	17.2	62	6.4	1	7	22	0.00	30.461 
22:35	17.2	17.2	17.2	59	5.4	1	5	0	0.00	30.464 
22:40	16.9	16.9	16.9	58	4.7	1	5	0	0.00	30.467 
22:45	16.7	16.7	16.7	55	3.4	2	7	0	0.00	30.469 
22:50	16.5	16.5	16.5	54	2.8	2	6	338	0.00	30.472 
22:55	16.4	16.4	16.4	54	2.7	2	9	315	0.00	30.475 
23:00	16.2	16.2	16.2	54	2.5	2	11	315	0.00	30.476 
23:05	16.1	16.1	16.1	55	2.8	2	6	0	0.00	30.479 
23:10	15.9	15.9	15.9	55	2.6	2	6	338	0.00	30.483 
23:15	15.7	15.7	15.7	57	3.2	2	6	22	0.00	30.486 
23:20	15.6	15.6	15.6	57	3.1	1	4	338	0.00	30.485 
23:25	15.4	15.4	15.4	57	2.9	1	3	0	0.00	30.488 
23:30	15.4	15.4	15.4	57	2.9	1	6	315	0.00	30.489 
23:35	15.2	15.2	15.2	56	2.4	1	9	0	0.00	30.490 
23:40	15.1	15.1	15.1	55	1.9	1	5	338	0.00	30.495 
23:45	14.9	14.9	14.9	55	1.7	1	6	338	0.00	30.497 
23:50	14.8	14.8	14.8	55	1.6	2	4	338	0.00	30.501 
23:55	14.8	14.8	14.8	55	1.6	1	3	338	0.00	30.504 

CoCoRaHS
IN-AL-39
A2 Web Hosting
Creative Commons License
GoDaddy
Look for:

loaded 2017-10-17 09:07:02 • last modified 2010-11-18 10:43:29
Privacy PolicyDisclaimer
• wx.awcolley.com is powered by PmWiki v.2002016 •
• all content (unless otherwise noted) © 2017 A W Colley